Terminal Aerodrome Forecast
Issued by NWS Wilmington, OH

Current Version | Previous Version | Graphics & Text | Print | Product List | Glossary On
Versions: 1 2 3 4 5 6 7 8 9 10 11 12 13 14 15 16 17 18 19 20 21 22 23 24 25 26 27
000
FTUS41 KILN 222335
TAFCVG
TAF
KCVG 222335Z 2300/2406 18008KT P6SM FEW040 SCT250
     FM230100 24003KT P6SM SCT040 BKN250
     FM230800 00000KT 3SM BR FEW025
      TEMPO 2309/2312 2SM BR
     FM231300 25005KT P6SM FEW050 SCT250
     FM240000 00000KT P6SM SCT250=

USA.gov is the U.S. government's official web portal to all federal, state and local government web resources and services.